Nearby METAR* Reports

*"METAR [Météorologique Aviation Régulière] is the international standard code format for hourly surface weather observations which is analogous to the SA coding currently used in the US. The acronym roughly translates from French as Aviation Routine Weather Report." (Source: http://gosic.org/wdcmet/us-metar-faq-taf)

 

KTEB - Teterboro, New Jersey, USA
Distance from station: ENE 2mi, 3km
Updated: 01/21/2018 6:51am
Clear
Clear
 Wind from calm
Wind: Calm
Temperature: 30°F , -1°C
Dew Point: 27°F , -3°C
Humidity: 86%
Barometer: 30.13 inHg , 1020.3 hPa
Clouds: Clear
Visibility: 10 miles , 16 km
2018/01/21 11:51 KTEB 211151Z 00000KT 10SM CLR M01/M03 A3013 RMK AO2 SLP204 T10111033 10028 21017 53021 $
KNYC - Nyc/Central Park, New York, USA
Distance from station: SE 8mi, 13km
Updated: 01/21/2018 6:51am
Clear
Clear
 Wind from W
Wind: W 7 mph , 11 km/h
Temperature: 43°F , 6°C
Wind Chill: 39°F , 4°C
Dew Point: 28°F , -2°C
Humidity: 57%
Barometer: 30.16 inHg , 1021.3 hPa
Clouds: Clear
Visibility: 10 miles , 16 km
2018/01/21 11:51 KNYC 211151Z AUTO 27006KT 10SM CLR 06/M02 A3016 RMK AO2 SLP203 T00611022 10072 20056 53021 $
KCDW - Caldwell, New Jersey, USA
Distance from station: W 11mi, 17km
Updated: 01/21/2018 6:53am
Clear
Clear
 Wind from calm
Wind: Calm
Temperature: 27°F , -3°C
Dew Point: 25°F , -4°C
Humidity: 93%
Barometer: 30.15 inHg , 1021 hPa
Clouds: Clear
Visibility: 10 miles , 16 km
2018/01/21 11:53 KCDW 211153Z 00000KT 10SM CLR M03/M04 A3015 RMK AO2 SLP216 T10331039 10006 21033 53021
 
KLGA - Nyc/La Guardia, New York, USA
Distance from station: ESE 12mi, 19km
Updated: 01/21/2018 6:51am
Partly cloudy
Partly cloudy
 Wind from W
Wind: W 5 mph , 7 km/h
Temperature: 45°F , 7°C
Wind Chill: 42°F , 6°C
Dew Point: 28°F , -2°C
Humidity: 53%
Barometer: 30.14 inHg , 1020.7 hPa
Clouds: Partly cloudy
Visibility: 10 miles , 16 km
Cloud details: Few Clouds 9000 ft
Partly cloudy 20000 ft
Partly cloudy 25000 ft
2018/01/21 11:51 KLGA 211151Z 27004KT 10SM FEW090 SCT200 SCT250 07/M02 A3014 RMK AO2 SLP205 T00671022 10072 20056 53024
KEWR - Newark, New Jersey, USA
Distance from station: SSW 13mi, 20km
Updated: 01/21/2018 6:51am
Partly cloudy
Partly cloudy
 Wind from SSW
Wind: SSW 3 mph , 6 km/h
Temperature: 36°F , 2°C
Dew Point: 28°F , -2°C
Humidity: 75%
Barometer: 30.15 inHg , 1021 hPa
Clouds: Partly cloudy
Visibility: 10 miles , 16 km
Cloud details: Partly cloudy 25000 ft
2018/01/21 11:51 KEWR 211151Z 21003KT 10SM SCT250 02/M02 A3015 RMK AO2 SLP207 T00221022 10039 20011 53021 $
KMMU - Morristown Muni, New Jersey, USA
Distance from station: WSW 18mi, 29km
Updated: 01/21/2018 6:45am
Partly cloudy
Partly cloudy
 Wind from calm
Wind: Calm
Temperature: 25°F , -4°C
Dew Point: 23°F , -5°C
Humidity: 93%
Barometer: 30.14 inHg , 1020.7 hPa
Clouds: Partly cloudy
Visibility: 10 miles , 16 km
Cloud details: Partly cloudy 25000 ft
2018/01/21 11:45 KMMU 211145Z 00000KT 10SM SCT250 M04/M05 A3014
 
KLDJ - Linden, New Jersey, USA
Distance from station: SSW 19mi, 30km
Updated: 01/21/2018 7:35am
Clear
Clear
 Wind from calm
Wind: Calm
Temperature: 34°F , 1°C
Dew Point: 28°F , -2°C
Humidity: 81%
Barometer: 30.17 inHg , 1021.7 hPa
Clouds: Clear
Visibility: 10 miles , 16 km
2018/01/21 12:35 KLDJ 211235Z AUTO 00000KT 10SM CLR 01/M02 A3017 RMK AO2 T00131024
KJFK - Nyc/Jfk Arpt, New York, USA
Distance from station: SE 23mi, 36km
Updated: 01/21/2018 6:51am
Few Clouds
Few Clouds
 Wind from WSW
Wind: WSW 8 mph , 13 km/h
Temperature: 34°F , 1°C
Wind Chill: 27°F , -3°C
Dew Point: 28°F , -2°C
Humidity: 81%
Barometer: 30.15 inHg , 1021 hPa
Clouds: Few Clouds
Visibility: 10 miles , 16 km
Cloud details: Few Clouds 25000 ft
2018/01/21 11:51 KJFK 211151Z 25007KT 10SM FEW250 01/M02 A3015 RMK AO2 SLP210 T00061022 10039 21011 53021
KHPN - White Plains, New York, USA
Distance from station: NE 25mi, 40km
Updated: 01/21/2018 6:56am
Clear
Clear
 Wind from W
Wind: W 5 mph , 7 km/h
Temperature: 30°F , -1°C
Wind Chill: 25°F , -4°C
Dew Point: 27°F , -3°C
Humidity: 86%
Barometer: 30.11 inHg , 1019.6 hPa
Clouds: Clear
Visibility: 10 miles , 16 km
2018/01/21 11:56 KHPN 211156Z 28004KT 10SM CLR M01/M03 A3011 RMK AO2 SLP203 T10111028 10000 21028 53022
 
KSMQ - Somerville, New Jersey, USA
Distance from station: WSW 35mi, 56km
Updated: 01/21/2018 6:53am
Clear
Clear
 Wind from calm
Wind: Calm
Temperature: 25°F , -4°C
Dew Point: 23°F , -5°C
Humidity: 93%
Barometer: 30.14 inHg , 1020.7 hPa
Clouds: Clear
Visibility: 10 miles , 16 km
2018/01/21 11:53 KSMQ 211153Z AUTO 00000KT 10SM CLR M04/M05 A3014 RMK AO2 SLP207 I1000 I6000 T10441050 11017 21044 51021
K12N - Andover, New Jersey, USA
Distance from station: WNW 36mi, 57km
Updated: 01/21/2018 6:54am

 Wind from calm
Wind: Calm
Temperature: 21°F , -6°C
Dew Point: 19°F , -7°C
Humidity: 93%
Barometer: 30.14 inHg , 1020.7 hPa
2018/01/21 11:54 K12N 211154Z AUTO 00000KT M06/M07 A3014 RMK AO1 SLP218 T10611067 11039 21061 51020
KFRG - Farmingdale, New York, USA
Distance from station: ESE 36mi, 58km
Updated: 01/21/2018 6:53am
Clear
Clear
 Wind from calm
Wind: Calm
Temperature: 32°F , 0°C
Dew Point: 27°F , -3°C
Humidity: 80%
Barometer: 30.14 inHg , 1020.7 hPa
Clouds: Clear
Visibility: 10 miles , 16 km
2018/01/21 11:53 KFRG 211153Z 00000KT 10SM CLR 00/M03 A3014 RMK AO2 SLP205 T00001028 10033 21011 53022
 
KFWN - Sussex, New Jersey, USA
Distance from station: NW 37mi, 60km
Updated: 01/21/2018 6:53am
Clear
Clear
 Wind from calm
Wind: Calm
Temperature: 19°F , -7°C
Dew Point: 18°F , -8°C
Humidity: 93%
Barometer: 30.13 inHg , 1020.3 hPa
Clouds: Clear
Visibility: 10 miles , 16 km
2018/01/21 11:53 KFWN 211153Z AUTO 00000KT 10SM CLR M07/M08 A3013 RMK AO2 SLP208 I1000 I6000 T10671078 11039 21072 53020
KSWF - Newburgh/Stewart, New York, USA
Distance from station: 0 44mi, 72km
Updated: 01/21/2018 7:45am
Mostly cloudy
Mostly cloudy
 Wind from calm
Wind: Calm
Temperature: 30°F , -1°C
Dew Point: 27°F , -3°C
Humidity: 86%
Barometer: 30.14 inHg , 1020.7 hPa
Clouds: Mostly cloudy
Visibility: 10 miles , 16 km
Cloud details: Mostly cloudy 12000 ft
2018/01/21 12:45 KSWF 211245Z 00000KT 10SM BKN120 M01/M03 A3014
KMGJ - Montgomery, New York, USA
Distance from station: NNW 47mi, 75km
Updated: 01/21/2018 6:54am
Clear
Clear
 Wind from WSW
Wind: WSW 8 mph , 13 km/h
Temperature: 30°F , -1°C
Wind Chill: 22°F , -6°C
Dew Point: 25°F , -4°C
Humidity: 80%
Barometer: 30.10 inHg , 1019.3 hPa
Clouds: Clear
Visibility: 10 miles , 16 km
2018/01/21 11:54 KMGJ 211154Z AUTO 24007KT 10SM CLR M01/M04 A3010 RMK AO2 SLP197 T10061044 10017 21050 53017
 
KDXR - Danbury, Connecticut, USA
Distance from station: NE 47mi, 76km
Updated: 01/21/2018 6:53am
Clear
Clear
 Wind from calm
Wind: Calm
Temperature: 23°F , -5°C
Dew Point: 21°F , -6°C
Humidity: 93%
Barometer: 30.13 inHg , 1020.3 hPa
Clouds: Clear
Visibility: 10 miles , 16 km
2018/01/21 11:53 KDXR 211153Z 00000KT 10SM CLR M05/M06 A3013 RMK AO2 SLP207 I6000 T10501061 11028 21050 53022 $
KBLM - Belmar/Farmdale, New Jersey, USA
Distance from station: S 48mi, 77km
Updated: 01/21/2018 6:56am
Clear
Clear
 Wind from W
Wind: W 5 mph , 7 km/h
Temperature: 36°F , 2°C
Wind Chill: 32°F , 0°C
Dew Point: 28°F , -2°C
Humidity: 75%
Barometer: 30.16 inHg , 1021.3 hPa
Clouds: Clear
Visibility: 10 miles , 16 km
2018/01/21 11:56 KBLM 211156Z AUTO 26004KT 10SM CLR 02/M02 A3016 RMK AO2 SLP219 6//// 7//// T00221022 10050 20017 53020 FZRANO